sensor_id;sensor_type;location;lat;lon;timestamp;temperature;humidity
39453;DHT22;25154;-33.684;151.102;2023-10-08T00:03:19;18.90;99.90
39453;DHT22;25154;-33.684;151.102;2023-10-08T00:08:29;19.20;99.90
39453;DHT22;25154;-33.684;151.102;2023-10-08T00:13:32;20.40;98.60
39453;DHT22;25154;-33.684;151.102;2023-10-08T00:18:40;20.20;99.30
39453;DHT22;25154;-33.684;151.102;2023-10-08T00:23:49;20.70;99.40
39453;DHT22;25154;-33.684;151.102;2023-10-08T00:29:00;20.10;98.40
39453;DHT22;25154;-33.684;151.102;2023-10-08T00:34:02;19.30;99.30
39453;DHT22;25154;-33.684;151.102;2023-10-08T00:39:06;20.60;97.60
39453;DHT22;25154;-33.684;151.102;2023-10-08T00:44:27;20.40;97.80
39453;DHT22;25154;-33.684;151.102;2023-10-08T00:49:36;20.50;98.30
39453;DHT22;25154;-33.684;151.102;2023-10-08T00:54:42;22.40;92.50
39453;DHT22;25154;-33.684;151.102;2023-10-08T01:00:10;22.10;90.90
39453;DHT22;25154;-33.684;151.102;2023-10-08T01:05:23;20.30;93.20
39453;DHT22;25154;-33.684;151.102;2023-10-08T01:10:27;20.20;94.50
39453;DHT22;25154;-33.684;151.102;2023-10-08T01:15:29;20.90;95.30
39453;DHT22;25154;-33.684;151.102;2023-10-08T01:20:31;22.70;90.70
39453;DHT22;25154;-33.684;151.102;2023-10-08T01:25:37;23.50;87.50
39453;DHT22;25154;-33.684;151.102;2023-10-08T01:30:39;24.40;84.30
39453;DHT22;25154;-33.684;151.102;2023-10-08T01:35:48;24.50;84.80
39453;DHT22;25154;-33.684;151.102;2023-10-08T01:40:52;24.50;80.00
39453;DHT22;25154;-33.684;151.102;2023-10-08T01:45:54;23.70;80.80
39453;DHT22;25154;-33.684;151.102;2023-10-08T01:50:57;24.70;81.30
39453;DHT22;25154;-33.684;151.102;2023-10-08T01:56:04;24.90;74.40
39453;DHT22;25154;-33.684;151.102;2023-10-08T02:01:06;25.50;75.00
39453;DHT22;25154;-33.684;151.102;2023-10-08T02:06:13;24.80;72.40
39453;DHT22;25154;-33.684;151.102;2023-10-08T02:11:14;24.30;75.60
39453;DHT22;25154;-33.684;151.102;2023-10-08T02:16:20;23.10;79.80
39453;DHT22;25154;-33.684;151.102;2023-10-08T02:21:23;22.10;85.40
39453;DHT22;25154;-33.684;151.102;2023-10-08T02:26:26;21.80;86.70
39453;DHT22;25154;-33.684;151.102;2023-10-08T02:31:28;21.10;86.80
39453;DHT22;25154;-33.684;151.102;2023-10-08T02:36:30;20.80;90.50
39453;DHT22;25154;-33.684;151.102;2023-10-08T02:41:32;21.60;89.60
39453;DHT22;25154;-33.684;151.102;2023-10-08T02:46:34;22.80;86.40
39453;DHT22;25154;-33.684;151.102;2023-10-08T02:51:42;24.00;81.70
39453;DHT22;25154;-33.684;151.102;2023-10-08T02:56:49;24.70;78.10
39453;DHT22;25154;-33.684;151.102;2023-10-08T03:01:59;24.90;78.00
39453;DHT22;25154;-33.684;151.102;2023-10-08T03:07:01;25.40;78.60
39453;DHT22;25154;-33.684;151.102;2023-10-08T03:12:03;25.70;77.00
39453;DHT22;25154;-33.684;151.102;2023-10-08T03:17:10;25.60;75.70
39453;DHT22;25154;-33.684;151.102;2023-10-08T03:22:11;24.00;81.00
39453;DHT22;25154;-33.684;151.102;2023-10-08T03:27:13;26.00;74.80
39453;DHT22;25154;-33.684;151.102;2023-10-08T03:32:21;29.20;68.70
39453;DHT22;25154;-33.684;151.102;2023-10-08T03:37:27;27.60;70.30
39453;DHT22;25154;-33.684;151.102;2023-10-08T03:42:42;25.00;75.70
39453;DHT22;25154;-33.684;151.102;2023-10-08T03:47:50;29.20;65.10
39453;DHT22;25154;-33.684;151.102;2023-10-08T03:53:07;31.30;62.70
39453;DHT22;25154;-33.684;151.102;2023-10-08T03:58:15;32.30;60.60
39453;DHT22;25154;-33.684;151.102;2023-10-08T04:03:32;27.10;67.80
39453;DHT22;25154;-33.684;151.102;2023-10-08T04:08:53;23.40;76.40
39453;DHT22;25154;-33.684;151.102;2023-10-08T04:14:10;21.90;83.00
39453;DHT22;25154;-33.684;151.102;2023-10-08T04:19:12;21.40;86.60
39453;DHT22;25154;-33.684;151.102;2023-10-08T04:24:14;21.20;88.40
39453;DHT22;25154;-33.684;151.102;2023-10-08T04:29:16;25.40;78.20
39453;DHT22;25154;-33.684;151.102;2023-10-08T04:34:23;33.40;59.20
39453;DHT22;25154;-33.684;151.102;2023-10-08T04:39:27;32.90;58.40
39453;DHT22;25154;-33.684;151.102;2023-10-08T04:44:35;32.60;55.70
39453;DHT22;25154;-33.684;151.102;2023-10-08T04:49:40;34.80;54.70
39453;DHT22;25154;-33.684;151.102;2023-10-08T04:54:46;33.40;53.50
39453;DHT22;25154;-33.684;151.102;2023-10-08T04:59:52;32.80;52.60
39453;DHT22;25154;-33.684;151.102;2023-10-08T05:04:58;34.20;53.50
39453;DHT22;25154;-33.684;151.102;2023-10-08T05:10:09;33.90;53.70
39453;DHT22;25154;-33.684;151.102;2023-10-08T05:15:11;33.90;52.80
39453;DHT22;25154;-33.684;151.102;2023-10-08T05:20:16;35.10;52.60
39453;DHT22;25154;-33.684;151.102;2023-10-08T05:25:31;35.20;52.40
39453;DHT22;25154;-33.684;151.102;2023-10-08T05:30:58;34.50;51.60
39453;DHT22;25154;-33.684;151.102;2023-10-08T05:36:16;36.20;50.60
39453;DHT22;25154;-33.684;151.102;2023-10-08T05:41:29;34.50;50.50
39453;DHT22;25154;-33.684;151.102;2023-10-08T05:46:31;33.30;51.80
39453;DHT22;25154;-33.684;151.102;2023-10-08T05:51:37;34.40;51.70
39453;DHT22;25154;-33.684;151.102;2023-10-08T05:56:48;35.50;50.70
39453;DHT22;25154;-33.684;151.102;2023-10-08T06:02:07;34.80;51.70
39453;DHT22;25154;-33.684;151.102;2023-10-08T06:07:29;33.00;50.00
39453;DHT22;25154;-33.684;151.102;2023-10-08T06:12:48;34.50;51.20
39453;DHT22;25154;-33.684;151.102;2023-10-08T06:18:02;34.10;51.80
39453;DHT22;25154;-33.684;151.102;2023-10-08T06:23:12;34.00;50.70
39453;DHT22;25154;-33.684;151.102;2023-10-08T06:28:19;34.80;50.80
39453;DHT22;25154;-33.684;151.102;2023-10-08T06:33:21;32.80;50.40
39453;DHT22;25154;-33.684;151.102;2023-10-08T06:38:23;32.70;52.40
39453;DHT22;25154;-33.684;151.102;2023-10-08T06:43:28;32.70;51.20
39453;DHT22;25154;-33.684;151.102;2023-10-08T06:48:29;31.90;52.20
39453;DHT22;25154;-33.684;151.102;2023-10-08T06:53:31;33.20;52.60
39453;DHT22;25154;-33.684;151.102;2023-10-08T06:58:33;32.20;53.80
39453;DHT22;25154;-33.684;151.102;2023-10-08T07:03:35;32.20;53.30
39453;DHT22;25154;-33.684;151.102;2023-10-08T07:08:39;28.80;56.40
39453;DHT22;25154;-33.684;151.102;2023-10-08T07:13:43;30.20;56.50
39453;DHT22;25154;-33.684;151.102;2023-10-08T07:18:46;28.30;58.40
39453;DHT22;25154;-33.684;151.102;2023-10-08T07:23:54;23.30;68.60
39453;DHT22;25154;-33.684;151.102;2023-10-08T07:29:00;20.80;79.80
39453;DHT22;25154;-33.684;151.102;2023-10-08T07:34:06;19.30;86.80
39453;DHT22;25154;-33.684;151.102;2023-10-08T07:39:26;19.00;86.20
39453;DHT22;25154;-33.684;151.102;2023-10-08T07:44:28;18.50;90.70
39453;DHT22;25154;-33.684;151.102;2023-10-08T07:49:33;17.90;94.80
39453;DHT22;25154;-33.684;151.102;2023-10-08T07:54:37;17.50;99.00
39453;DHT22;25154;-33.684;151.102;2023-10-08T07:59:41;17.10;99.90
39453;DHT22;25154;-33.684;151.102;2023-10-08T08:04:52;16.60;99.90
39453;DHT22;25154;-33.684;151.102;2023-10-08T08:09:54;16.50;99.90
39453;DHT22;25154;-33.684;151.102;2023-10-08T08:15:02;16.20;99.90
39453;DHT22;25154;-33.684;151.102;2023-10-08T08:20:15;16.10;99.90
39453;DHT22;25154;-33.684;151.102;2023-10-08T08:25:20;16.00;99.90
39453;DHT22;25154;-33.684;151.102;2023-10-08T08:30:35;15.70;99.90
39453;DHT22;25154;-33.684;151.102;2023-10-08T08:35:38;15.50;99.90
39453;DHT22;25154;-33.684;151.102;2023-10-08T08:40:39;15.40;99.90
39453;DHT22;25154;-33.684;151.102;2023-10-08T08:45:42;15.20;99.90
39453;DHT22;25154;-33.684;151.102;2023-10-08T08:50:44;15.20;99.90
39453;DHT22;25154;-33.684;151.102;2023-10-08T08:55:48;15.00;99.90
39453;DHT22;25154;-33.684;151.102;2023-10-08T09:00:51;14.90;99.90
39453;DHT22;25154;-33.684;151.102;2023-10-08T09:05:53;14.80;99.90
39453;DHT22;25154;-33.684;151.102;2023-10-08T09:10:57;14.80;99.90
39453;DHT22;25154;-33.684;151.102;2023-10-08T09:16:22;11.00;99.90
39453;DHT22;25154;-33.684;151.102;2023-10-08T09:21:24;14.70;99.90
39453;DHT22;25154;-33.684;151.102;2023-10-08T09:26:29;14.60;99.90
39453;DHT22;25154;-33.684;151.102;2023-10-08T09:31:32;14.40;99.90
39453;DHT22;25154;-33.684;151.102;2023-10-08T09:36:36;13.20;99.90
39453;DHT22;25154;-33.684;151.102;2023-10-08T09:41:38;14.50;99.90
39453;DHT22;25154;-33.684;151.102;2023-10-08T09:47:21;14.30;99.90
39453;DHT22;25154;-33.684;151.102;2023-10-08T09:52:16;14.30;99.90
39453;DHT22;25154;-33.684;151.102;2023-10-08T09:57:19;14.20;99.90
39453;DHT22;25154;-33.684;151.102;2023-10-08T10:02:22;14.30;99.90
39453;DHT22;25154;-33.684;151.102;2023-10-08T10:07:28;14.00;99.90
39453;DHT22;25154;-33.684;151.102;2023-10-08T10:12:31;13.90;99.90
39453;DHT22;25154;-33.684;151.102;2023-10-08T10:17:33;13.80;99.90
39453;DHT22;25154;-33.684;151.102;2023-10-08T10:22:36;12.60;99.90
39453;DHT22;25154;-33.684;151.102;2023-10-08T10:27:38;13.60;99.90
39453;DHT22;25154;-33.684;151.102;2023-10-08T10:32:40;13.30;99.90
39453;DHT22;25154;-33.684;151.102;2023-10-08T10:37:47;13.00;99.90
39453;DHT22;25154;-33.684;151.102;2023-10-08T10:42:56;13.00;99.90
39453;DHT22;25154;-33.684;151.102;2023-10-08T10:47:58;12.80;99.90
39453;DHT22;25154;-33.684;151.102;2023-10-08T10:53:12;12.70;99.90
39453;DHT22;25154;-33.684;151.102;2023-10-08T10:58:14;12.70;99.90
39453;DHT22;25154;-33.684;151.102;2023-10-08T11:03:16;12.50;99.90
39453;DHT22;25154;-33.684;151.102;2023-10-08T11:08:20;12.40;99.90
39453;DHT22;25154;-33.684;151.102;2023-10-08T11:13:24;13.00;99.90
39453;DHT22;25154;-33.684;151.102;2023-10-08T11:18:42;12.70;99.90
39453;DHT22;25154;-33.684;151.102;2023-10-08T11:23:46;12.70;99.90
39453;DHT22;25154;-33.684;151.102;2023-10-08T11:28:56;12.50;99.90
39453;DHT22;25154;-33.684;151.102;2023-10-08T11:34:04;12.60;99.90
39453;DHT22;25154;-33.684;151.102;2023-10-08T11:39:14;11.60;99.90
39453;DHT22;25154;-33.684;151.102;2023-10-08T11:44:31;12.50;99.90
39453;DHT22;25154;-33.684;151.102;2023-10-08T11:49:37;12.30;99.90
39453;DHT22;25154;-33.684;151.102;2023-10-08T11:54:49;12.20;99.90
39453;DHT22;25154;-33.684;151.102;2023-10-08T11:59:53;12.10;99.90
39453;DHT22;25154;-33.684;151.102;2023-10-08T12:04:55;12.20;99.90
39453;DHT22;25154;-33.684;151.102;2023-10-08T12:09:58;12.10;99.90
39453;DHT22;25154;-33.684;151.102;2023-10-08T12:14:59;11.80;99.90
39453;DHT22;25154;-33.684;151.102;2023-10-08T12:20:04;11.80;99.90
39453;DHT22;25154;-33.684;151.102;2023-10-08T12:25:38;11.90;99.90
39453;DHT22;25154;-33.684;151.102;2023-10-08T12:30:42;11.90;99.90
39453;DHT22;25154;-33.684;151.102;2023-10-08T12:35:44;11.80;99.90
39453;DHT22;25154;-33.684;151.102;2023-10-08T12:40:46;11.40;99.90
39453;DHT22;25154;-33.684;151.102;2023-10-08T12:45:49;11.50;99.90
39453;DHT22;25154;-33.684;151.102;2023-10-08T12:50:54;11.50;99.90
39453;DHT22;25154;-33.684;151.102;2023-10-08T12:55:59;11.20;99.90
39453;DHT22;25154;-33.684;151.102;2023-10-08T13:01:06;11.60;99.90
39453;DHT22;25154;-33.684;151.102;2023-10-08T13:06:10;11.20;99.90
39453;DHT22;25154;-33.684;151.102;2023-10-08T13:11:23;11.30;99.90
39453;DHT22;25154;-33.684;151.102;2023-10-08T13:16:25;11.20;99.90
39453;DHT22;25154;-33.684;151.102;2023-10-08T13:21:27;11.20;99.90
39453;DHT22;25154;-33.684;151.102;2023-10-08T13:26:29;11.10;99.90
39453;DHT22;25154;-33.684;151.102;2023-10-08T13:31:33;11.30;99.90
39453;DHT22;25154;-33.684;151.102;2023-10-08T13:36:40;11.00;99.90
39453;DHT22;25154;-33.684;151.102;2023-10-08T13:41:43;10.80;99.90
39453;DHT22;25154;-33.684;151.102;2023-10-08T13:46:48;10.90;99.90
39453;DHT22;25154;-33.684;151.102;2023-10-08T13:51:51;10.70;99.90
39453;DHT22;25154;-33.684;151.102;2023-10-08T13:56:57;10.80;99.90
39453;DHT22;25154;-33.684;151.102;2023-10-08T14:01:58;10.70;99.90
39453;DHT22;25154;-33.684;151.102;2023-10-08T14:07:02;10.60;99.90
39453;DHT22;25154;-33.684;151.102;2023-10-08T14:12:05;10.70;99.90
39453;DHT22;25154;-33.684;151.102;2023-10-08T14:17:14;10.40;99.90
39453;DHT22;25154;-33.684;151.102;2023-10-08T14:22:16;10.30;99.90
39453;DHT22;25154;-33.684;151.102;2023-10-08T14:27:20;10.20;99.90
39453;DHT22;25154;-33.684;151.102;2023-10-08T14:32:27;10.00;99.90
39453;DHT22;25154;-33.684;151.102;2023-10-08T14:37:32;10.30;99.90
39453;DHT22;25154;-33.684;151.102;2023-10-08T14:42:52;10.00;99.90
39453;DHT22;25154;-33.684;151.102;2023-10-08T14:47:57;10.00;99.90
39453;DHT22;25154;-33.684;151.102;2023-10-08T14:53:00;10.10;99.90
39453;DHT22;25154;-33.684;151.102;2023-10-08T14:58:03;10.10;99.90
39453;DHT22;25154;-33.684;151.102;2023-10-08T15:03:15;10.10;99.90
39453;DHT22;25154;-33.684;151.102;2023-10-08T15:08:17;9.80;99.90
39453;DHT22;25154;-33.684;151.102;2023-10-08T15:13:19;9.40;99.90
39453;DHT22;25154;-33.684;151.102;2023-10-08T15:18:21;9.40;99.90
39453;DHT22;25154;-33.684;151.102;2023-10-08T15:23:23;9.70;99.90
39453;DHT22;25154;-33.684;151.102;2023-10-08T15:28:28;9.70;99.90
39453;DHT22;25154;-33.684;151.102;2023-10-08T15:33:31;9.80;99.90
39453;DHT22;25154;-33.684;151.102;2023-10-08T15:38:33;9.80;99.90
39453;DHT22;25154;-33.684;151.102;2023-10-08T15:43:35;9.90;99.90
39453;DHT22;25154;-33.684;151.102;2023-10-08T15:48:37;9.70;99.90
39453;DHT22;25154;-33.684;151.102;2023-10-08T15:53:39;9.70;99.90
39453;DHT22;25154;-33.684;151.102;2023-10-08T15:58:42;9.30;99.90
39453;DHT22;25154;-33.684;151.102;2023-10-08T16:03:44;9.30;99.90
39453;DHT22;25154;-33.684;151.102;2023-10-08T16:08:46;9.10;99.90
39453;DHT22;25154;-33.684;151.102;2023-10-08T16:13:48;9.40;99.90
39453;DHT22;25154;-33.684;151.102;2023-10-08T16:18:50;9.30;99.90
39453;DHT22;25154;-33.684;151.102;2023-10-08T16:23:52;8.90;99.90
39453;DHT22;25154;-33.684;151.102;2023-10-08T16:28:54;9.10;99.90
39453;DHT22;25154;-33.684;151.102;2023-10-08T16:33:57;9.30;99.90
39453;DHT22;25154;-33.684;151.102;2023-10-08T16:38:59;9.10;99.90
39453;DHT22;25154;-33.684;151.102;2023-10-08T16:49:02;8.90;99.90
39453;DHT22;25154;-33.684;151.102;2023-10-08T16:54:05;9.00;99.90
39453;DHT22;25154;-33.684;151.102;2023-10-08T16:59:09;9.00;99.90
39453;DHT22;25154;-33.684;151.102;2023-10-08T17:04:20;8.70;99.90
39453;DHT22;25154;-33.684;151.102;2023-10-08T17:09:22;9.00;99.90
39453;DHT22;25154;-33.684;151.102;2023-10-08T17:14:28;9.00;99.90
39453;DHT22;25154;-33.684;151.102;2023-10-08T17:19:30;9.20;99.90
39453;DHT22;25154;-33.684;151.102;2023-10-08T17:24:32;8.80;99.90
39453;DHT22;25154;-33.684;151.102;2023-10-08T17:29:34;8.80;99.90
39453;DHT22;25154;-33.684;151.102;2023-10-08T17:34:36;8.80;99.90
39453;DHT22;25154;-33.684;151.102;2023-10-08T17:39:37;8.60;99.90
39453;DHT22;25154;-33.684;151.102;2023-10-08T17:44:39;8.80;99.90
39453;DHT22;25154;-33.684;151.102;2023-10-08T17:49:41;8.80;99.90
39453;DHT22;25154;-33.684;151.102;2023-10-08T17:54:43;8.90;99.90
39453;DHT22;25154;-33.684;151.102;2023-10-08T17:59:46;8.80;99.90
39453;DHT22;25154;-33.684;151.102;2023-10-08T18:04:49;8.50;99.90
39453;DHT22;25154;-33.684;151.102;2023-10-08T18:09:51;8.80;99.90
39453;DHT22;25154;-33.684;151.102;2023-10-08T18:14:52;8.80;99.90
39453;DHT22;25154;-33.684;151.102;2023-10-08T18:19:54;8.30;99.90
39453;DHT22;25154;-33.684;151.102;2023-10-08T18:24:57;8.40;99.90
39453;DHT22;25154;-33.684;151.102;2023-10-08T18:29:59;8.30;99.90
39453;DHT22;25154;-33.684;151.102;2023-10-08T18:35:01;8.30;99.90
39453;DHT22;25154;-33.684;151.102;2023-10-08T18:40:06;8.20;99.90
39453;DHT22;25154;-33.684;151.102;2023-10-08T18:45:13;8.10;99.90
39453;DHT22;25154;-33.684;151.102;2023-10-08T18:50:18;8.10;99.90
39453;DHT22;25154;-33.684;151.102;2023-10-08T18:55:23;8.10;99.90
39453;DHT22;25154;-33.684;151.102;2023-10-08T19:00:25;7.90;99.90
39453;DHT22;25154;-33.684;151.102;2023-10-08T19:05:27;8.00;99.90
39453;DHT22;25154;-33.684;151.102;2023-10-08T19:10:29;8.20;99.90
39453;DHT22;25154;-33.684;151.102;2023-10-08T19:15:31;7.90;99.90
39453;DHT22;25154;-33.684;151.102;2023-10-08T19:20:35;8.00;99.90
39453;DHT22;25154;-33.684;151.102;2023-10-08T19:25:38;7.90;99.90
39453;DHT22;25154;-33.684;151.102;2023-10-08T19:35:46;7.70;99.90
39453;DHT22;25154;-33.684;151.102;2023-10-08T19:40:48;8.00;99.90
39453;DHT22;25154;-33.684;151.102;2023-10-08T19:45:50;8.00;99.90
39453;DHT22;25154;-33.684;151.102;2023-10-08T19:50:52;8.00;99.90
39453;DHT22;25154;-33.684;151.102;2023-10-08T19:55:56;7.90;99.90
39453;DHT22;25154;-33.684;151.102;2023-10-08T20:00:58;7.90;99.90
39453;DHT22;25154;-33.684;151.102;2023-10-08T20:06:00;8.40;99.90
39453;DHT22;25154;-33.684;151.102;2023-10-08T20:11:03;8.60;99.90
39453;DHT22;25154;-33.684;151.102;2023-10-08T20:16:05;8.50;99.90
39453;DHT22;25154;-33.684;151.102;2023-10-08T20:21:07;8.50;99.90
39453;DHT22;25154;-33.684;151.102;2023-10-08T20:26:11;8.60;99.90
39453;DHT22;25154;-33.684;151.102;2023-10-08T20:31:14;8.90;99.90
39453;DHT22;25154;-33.684;151.102;2023-10-08T20:36:16;8.90;99.90
39453;DHT22;25154;-33.684;151.102;2023-10-08T20:41:18;9.30;99.90
39453;DHT22;25154;-33.684;151.102;2023-10-08T20:46:23;9.60;99.90
39453;DHT22;25154;-33.684;151.102;2023-10-08T20:51:25;10.30;99.90
39453;DHT22;25154;-33.684;151.102;2023-10-08T20:56:27;10.60;99.90
39453;DHT22;25154;-33.684;151.102;2023-10-08T21:01:31;10.60;99.90
39453;DHT22;25154;-33.684;151.102;2023-10-08T21:06:34;11.30;99.90
39453;DHT22;25154;-33.684;151.102;2023-10-08T21:11:36;11.60;99.90
39453;DHT22;25154;-33.684;151.102;2023-10-08T21:16:39;12.00;99.90
39453;DHT22;25154;-33.684;151.102;2023-10-08T21:21:40;12.30;99.90
39453;DHT22;25154;-33.684;151.102;2023-10-08T21:26:42;12.50;99.90
39453;DHT22;25154;-33.684;151.102;2023-10-08T21:31:44;12.90;99.90
39453;DHT22;25154;-33.684;151.102;2023-10-08T21:36:45;13.50;99.90
39453;DHT22;25154;-33.684;151.102;2023-10-08T21:41:47;13.70;99.90
39453;DHT22;25154;-33.684;151.102;2023-10-08T21:46:49;14.20;99.90
39453;DHT22;25154;-33.684;151.102;2023-10-08T21:51:50;14.30;99.90
39453;DHT22;25154;-33.684;151.102;2023-10-08T21:56:52;14.70;99.90
39453;DHT22;25154;-33.684;151.102;2023-10-08T22:01:55;15.20;99.90
39453;DHT22;25154;-33.684;151.102;2023-10-08T22:06:58;15.30;99.90
39453;DHT22;25154;-33.684;151.102;2023-10-08T22:17:45;16.70;99.90
39453;DHT22;25154;-33.684;151.102;2023-10-08T22:22:47;17.00;99.90
39453;DHT22;25154;-33.684;151.102;2023-10-08T22:27:49;17.50;99.90
39453;DHT22;25154;-33.684;151.102;2023-10-08T22:32:51;17.90;99.90
39453;DHT22;25154;-33.684;151.102;2023-10-08T22:37:53;18.10;99.90
39453;DHT22;25154;-33.684;151.102;2023-10-08T22:43:17;17.90;99.90
39453;DHT22;25154;-33.684;151.102;2023-10-08T22:48:20;18.30;99.90
39453;DHT22;25154;-33.684;151.102;2023-10-08T22:53:55;18.90;99.90
39453;DHT22;25154;-33.684;151.102;2023-10-08T22:58:57;19.20;99.90
39453;DHT22;25154;-33.684;151.102;2023-10-08T23:04:01;19.40;99.80
39453;DHT22;25154;-33.684;151.102;2023-10-08T23:09:04;19.80;97.90
39453;DHT22;25154;-33.684;151.102;2023-10-08T23:14:10;20.40;95.50
39453;DHT22;25154;-33.684;151.102;2023-10-08T23:19:12;20.60;94.80
39453;DHT22;25154;-33.684;151.102;2023-10-08T23:24:15;21.10;92.90
39453;DHT22;25154;-33.684;151.102;2023-10-08T23:29:18;21.00;90.70
39453;DHT22;25154;-33.684;151.102;2023-10-08T23:34:20;21.20;92.60
39453;DHT22;25154;-33.684;151.102;2023-10-08T23:39:22;21.20;92.20
39453;DHT22;25154;-33.684;151.102;2023-10-08T23:44:36;21.40;91.50
39453;DHT22;25154;-33.684;151.102;2023-10-08T23:49:38;21.80;90.00
39453;DHT22;25154;-33.684;151.102;2023-10-08T23:54:54;21.90;88.60
39453;DHT22;25154;-33.684;151.102;2023-10-08T23:59:58;22.40;85.90
